Time;durP1;ratioP1;P1;durP2;ratioP2;P2;SDS_P1;SDS_P2;PMS_P1;PMS_P2;Temp;Humidity;BMP_temperature;BMP_pressure;BME280_temperature;BME280_humidity;BME280_pressure;Samples;Min_cycle;Max_cycle;Signal;HPM_P1;HPM_P2
2022/11/23 00:01:50;;;;;;;104.23;49.03;;;;;;;;;;5008541;28;20206;-80
2022/11/23 00:04:16;;;;;;;113.00;51.53;;;;;;;;;;5024938;28;20213;-79
2022/11/23 00:06:42;;;;;;;112.83;50.67;;;;;;;;;;5006049;28;20193;-81
2022/11/23 00:09:10;;;;;;;113.83;49.70;;;;;;;;;;5008448;28;20190;-78
2022/11/23 00:11:36;;;;;;;113.57;49.27;;;;;;;;;;5021866;28;20214;-79
2022/11/23 00:14:02;;;;;;;111.67;48.23;;;;;;;;;;5010189;28;20631;-80
2022/11/23 00:16:29;;;;;;;113.57;48.57;;;;;;;;;;5006042;28;20221;-80
2022/11/23 00:18:56;;;;;;;106.23;48.80;;;;;;;;;;5002036;28;20234;-79
2022/11/23 00:21:22;;;;;;;104.97;46.33;;;;;;;;;;5020285;28;20185;-80
2022/11/23 00:23:48;;;;;;;107.43;48.97;;;;;;;;;;5021068;28;20219;-79
2022/11/23 00:26:15;;;;;;;109.83;48.03;;;;;;;;;;5002408;28;20202;-79
2022/11/23 00:28:41;;;;;;;102.93;46.63;;;;;;;;;;5025215;28;20190;-79
2022/11/23 00:34:11;;;;;;;107.87;48.10;;;;;;;;;;5017655;28;20197;-78
2022/11/23 00:36:37;;;;;;;105.60;47.20;;;;;;;;;;5003742;28;20187;-78
2022/11/23 00:39:03;;;;;;;111.40;47.73;;;;;;;;;;5001555;28;20278;-78
2022/11/23 00:41:29;;;;;;;117.17;48.20;;;;;;;;;;5019722;28;20236;-80
2022/11/23 00:43:55;;;;;;;117.87;49.90;;;;;;;;;;5023898;28;20798;-78
2022/11/23 00:46:22;;;;;;;113.23;48.17;;;;;;;;;;5000496;28;20557;-79
2022/11/23 00:48:49;;;;;;;117.50;48.20;;;;;;;;;;5013066;28;20203;-79
2022/11/23 00:51:16;;;;;;;117.87;48.50;;;;;;;;;;4998902;28;20184;-78
2022/11/23 00:53:42;;;;;;;129.73;50.10;;;;;;;;;;5020495;28;20210;-78
2022/11/23 00:56:09;;;;;;;115.40;48.63;;;;;;;;;;4998969;28;20656;-78
2022/11/23 00:58:37;;;;;;;116.50;48.87;;;;;;;;;;5002023;28;20190;-79
2022/11/23 01:01:05;;;;;;;116.90;48.63;;;;;;;;;;4999957;28;20876;-79
2022/11/23 01:03:31;;;;;;;123.83;48.50;;;;;;;;;;5012720;28;20239;-80
2022/11/23 01:06:11;;;;;;;117.90;48.37;;;;;;;;;;5021067;28;20273;-78
2022/11/23 01:08:37;;;;;;;118.47;47.33;;;;;;;;;;5012010;28;20187;-80
2022/11/23 01:11:04;;;;;;;124.97;47.97;;;;;;;;;;5024768;28;20263;-81
2022/11/23 01:13:31;;;;;;;117.83;49.00;;;;;;;;;;5000148;28;20244;-79
2022/11/23 01:15:57;;;;;;;111.00;45.40;;;;;;;;;;5021617;28;20217;-81
2022/11/23 01:18:23;;;;;;;99.37;42.40;;;;;;;;;;4996909;28;20183;-81
2022/11/23 01:20:49;;;;;;;105.80;43.33;;;;;;;;;;5007296;28;20230;-81
2022/11/23 01:23:16;;;;;;;96.90;42.47;;;;;;;;;;5004351;28;20592;-80
2022/11/23 01:25:42;;;;;;;97.37;42.23;;;;;;;;;;5020228;28;20187;-81
2022/11/23 01:28:08;;;;;;;98.17;43.80;;;;;;;;;;5021587;28;20186;-80
2022/11/23 01:30:35;;;;;;;104.30;43.17;;;;;;;;;;5001046;28;20187;-80
2022/11/23 01:33:02;;;;;;;102.47;42.37;;;;;;;;;;5006673;28;20191;-81
2022/11/23 01:35:28;;;;;;;96.30;44.10;;;;;;;;;;5008181;28;20189;-79
2022/11/23 01:37:54;;;;;;;89.00;39.93;;;;;;;;;;5017334;28;20183;-81
2022/11/23 01:40:20;;;;;;;95.97;41.00;;;;;;;;;;5014966;28;20186;-80
2022/11/23 01:42:56;;;;;;;97.77;43.53;;;;;;;;;;4999807;28;20622;-81
2022/11/23 01:45:37;;;;;;;90.20;40.03;;;;;;;;;;4992800;28;20659;-81
2022/11/23 01:48:05;;;;;;;98.10;41.77;;;;;;;;;;4986862;28;20191;-79
2022/11/23 01:50:31;;;;;;;102.47;44.00;;;;;;;;;;4996210;28;20586;-81
2022/11/23 01:52:57;;;;;;;104.70;43.63;;;;;;;;;;5012757;28;20179;-78
2022/11/23 01:55:24;;;;;;;102.77;42.50;;;;;;;;;;5013208;28;20222;-78
2022/11/23 01:57:50;;;;;;;100.67;42.63;;;;;;;;;;5012425;28;20198;-80
2022/11/23 02:00:16;;;;;;;95.87;43.23;;;;;;;;;;5013197;28;20179;-80
2022/11/23 02:02:45;;;;;;;105.57;43.53;;;;;;;;;;5012489;28;20214;-81
2022/11/23 02:05:12;;;;;;;106.77;42.10;;;;;;;;;;5010835;28;20712;-79
2022/11/23 02:07:39;;;;;;;100.67;42.67;;;;;;;;;;4988797;28;20206;-81
2022/11/23 02:10:05;;;;;;;93.23;41.03;;;;;;;;;;5012556;28;20183;-81
2022/11/23 02:12:31;;;;;;;102.43;42.50;;;;;;;;;;5012001;28;20186;-81
2022/11/23 02:14:57;;;;;;;110.77;45.50;;;;;;;;;;5013169;28;20190;-80
2022/11/23 02:17:23;;;;;;;100.00;42.47;;;;;;;;;;5016488;28;20635;-78
2022/11/23 02:20:04;;;;;;;99.53;42.87;;;;;;;;;;5012937;28;20187;-81
2022/11/23 02:22:33;;;;;;;102.13;42.23;;;;;;;;;;5018182;28;20229;-81
2022/11/23 02:25:01;;;;;;;95.87;40.87;;;;;;;;;;5025593;28;20179;-77
2022/11/23 02:27:27;;;;;;;82.90;39.60;;;;;;;;;;5032880;28;20187;-78
2022/11/23 02:29:53;;;;;;;88.27;39.13;;;;;;;;;;5034205;28;20168;-78
2022/11/23 02:32:22;;;;;;;86.07;38.90;;;;;;;;;;5034115;28;20247;-80
2022/11/23 02:34:48;;;;;;;98.10;41.00;;;;;;;;;;5004336;28;20191;-76
2022/11/23 02:37:15;;;;;;;95.87;41.63;;;;;;;;;;5026378;28;20180;-78
2022/11/23 02:39:43;;;;;;;95.03;40.37;;;;;;;;;;5032793;28;20186;-79
2022/11/23 02:42:09;;;;;;;87.20;38.47;;;;;;;;;;5050778;28;20210;-81
2022/11/23 02:44:44;;;;;;;89.40;39.10;;;;;;;;;;5035800;28;20163;-78
2022/11/23 02:47:11;;;;;;;95.50;40.23;;;;;;;;;;5035716;28;20238;-79
2022/11/23 02:49:37;;;;;;;90.03;40.27;;;;;;;;;;5009831;28;20180;-79
2022/11/23 02:52:03;;;;;;;82.17;38.23;;;;;;;;;;5027356;28;20214;-80
2022/11/23 02:54:29;;;;;;;80.47;37.83;;;;;;;;;;5034714;28;20183;-78
2022/11/23 02:56:55;;;;;;;83.47;37.20;;;;;;;;;;5010540;28;20182;-80
2022/11/23 02:59:21;;;;;;;78.77;37.57;;;;;;;;;;4998484;28;20562;-81
2022/11/23 03:01:48;;;;;;;79.90;35.47;;;;;;;;;;4999985;28;20179;-80
2022/11/23 03:04:14;;;;;;;70.27;33.90;;;;;;;;;;5005845;28;20183;-80
2022/11/23 03:06:40;;;;;;;83.33;38.60;;;;;;;;;;4993777;28;20209;-79
2022/11/23 03:09:06;;;;;;;75.53;34.73;;;;;;;;;;5013704;28;20211;-80
2022/11/23 03:11:32;;;;;;;78.37;35.93;;;;;;;;;;5012376;28;20167;-79
2022/11/23 03:13:58;;;;;;;85.37;36.10;;;;;;;;;;4994333;28;20195;-79
2022/11/23 03:16:25;;;;;;;74.50;35.53;;;;;;;;;;5002620;28;20297;-79
2022/11/23 03:18:51;;;;;;;74.13;33.23;;;;;;;;;;5001849;28;20183;-78
2022/11/23 03:21:17;;;;;;;80.20;36.30;;;;;;;;;;5000536;28;20194;-78
2022/11/23 03:23:43;;;;;;;78.73;35.07;;;;;;;;;;5012422;28;20248;-80
2022/11/23 03:26:09;;;;;;;70.63;34.23;;;;;;;;;;5007930;28;20180;-79
2022/11/23 03:28:37;;;;;;;87.57;36.90;;;;;;;;;;5000926;28;20204;-78
2022/11/23 03:31:03;;;;;;;85.13;37.57;;;;;;;;;;5001238;28;20182;-78
2022/11/23 03:33:29;;;;;;;82.07;35.60;;;;;;;;;;5010748;28;20191;-78
2022/11/23 03:35:55;;;;;;;72.63;34.37;;;;;;;;;;4997169;28;20180;-79
2022/11/23 03:38:21;;;;;;;67.10;32.97;;;;;;;;;;4998706;28;20299;-80
2022/11/23 03:40:47;;;;;;;71.87;33.07;;;;;;;;;;5000431;28;20183;-81
2022/11/23 03:43:14;;;;;;;69.30;33.40;;;;;;;;;;5000054;28;20734;-80
2022/11/23 03:45:41;;;;;;;68.57;31.53;;;;;;;;;;4998717;28;20191;-80
2022/11/23 03:48:07;;;;;;;68.40;32.83;;;;;;;;;;4993457;28;20636;-78
2022/11/23 03:50:33;;;;;;;67.93;31.07;;;;;;;;;;5012100;28;20202;-81
2022/11/23 03:52:59;;;;;;;70.03;32.47;;;;;;;;;;5012967;28;20872;-80
2022/11/23 03:55:26;;;;;;;69.67;34.07;;;;;;;;;;5011330;28;20179;-79
2022/11/23 03:57:58;;;;;;;72.27;33.53;;;;;;;;;;4993474;28;20194;-79
2022/11/23 04:00:24;;;;;;;59.50;29.30;;;;;;;;;;4993311;28;20591;-79
2022/11/23 04:02:50;;;;;;;71.43;32.60;;;;;;;;;;4997574;28;20196;-79
2022/11/23 04:05:16;;;;;;;74.77;32.97;;;;;;;;;;5013286;28;20186;-79
2022/11/23 04:07:42;;;;;;;73.13;34.23;;;;;;;;;;5010919;28;20182;-78
2022/11/23 04:10:09;;;;;;;67.47;31.83;;;;;;;;;;5008291;28;20193;-81
2022/11/23 04:12:35;;;;;;;74.23;33.00;;;;;;;;;;4998138;28;20691;-80
2022/11/23 04:15:01;;;;;;;75.93;34.20;;;;;;;;;;5010620;28;20179;-81
2022/11/23 04:17:28;;;;;;;74.43;33.47;;;;;;;;;;5010136;28;20180;-79
2022/11/23 04:19:54;;;;;;;70.27;33.10;;;;;;;;;;4983030;28;20191;-80
2022/11/23 04:22:20;;;;;;;65.47;30.93;;;;;;;;;;5001221;28;20580;-79
2022/11/23 04:24:46;;;;;;;68.67;34.07;;;;;;;;;;5010448;28;20212;-80
2022/11/23 04:27:12;;;;;;;72.77;31.83;;;;;;;;;;5014101;28;20183;-80
2022/11/23 04:29:38;;;;;;;72.73;33.17;;;;;;;;;;5014389;28;20175;-80
2022/11/23 04:32:04;;;;;;;80.37;33.30;;;;;;;;;;5003283;28;20184;-80
2022/11/23 04:34:30;;;;;;;66.63;32.13;;;;;;;;;;5003654;28;20187;-79
2022/11/23 04:36:56;;;;;;;65.80;31.87;;;;;;;;;;5003775;28;20222;-79
2022/11/23 04:39:22;;;;;;;61.93;29.63;;;;;;;;;;5014557;28;20545;-81
2022/11/23 04:41:48;;;;;;;59.03;28.30;;;;;;;;;;4999419;28;20180;-79
2022/11/23 04:44:14;;;;;;;56.77;28.27;;;;;;;;;;5015070;28;20194;-80
2022/11/23 04:46:40;;;;;;;55.77;27.90;;;;;;;;;;5014016;28;20187;-79
2022/11/23 04:49:08;;;;;;;54.37;26.87;;;;;;;;;;5013714;28;20206;-79
2022/11/23 04:51:34;;;;;;;54.90;27.03;;;;;;;;;;5012751;28;20187;-79
2022/11/23 04:54:00;;;;;;;49.07;26.10;;;;;;;;;;5014472;28;20179;-80
2022/11/23 04:56:26;;;;;;;55.50;27.27;;;;;;;;;;5001248;28;20183;-79
2022/11/23 04:58:52;;;;;;;49.23;26.63;;;;;;;;;;5001876;28;20194;-79
2022/11/23 05:01:18;;;;;;;48.63;26.83;;;;;;;;;;4992230;28;20183;-80
2022/11/23 05:03:44;;;;;;;51.10;26.80;;;;;;;;;;4996291;28;20215;-78
2022/11/23 05:06:10;;;;;;;58.43;28.00;;;;;;;;;;4994985;28;20202;-81
2022/11/23 05:08:36;;;;;;;50.60;26.93;;;;;;;;;;4996952;28;20660;-81
2022/11/23 05:11:02;;;;;;;52.83;27.80;;;;;;;;;;5012291;28;20189;-79
2022/11/23 05:13:28;;;;;;;51.10;25.43;;;;;;;;;;5012216;28;20281;-81
2022/11/23 05:15:54;;;;;;;50.53;27.37;;;;;;;;;;5012554;28;20183;-80
2022/11/23 05:18:20;;;;;;;50.67;27.03;;;;;;;;;;4998352;28;20197;-78
2022/11/23 05:20:46;;;;;;;50.00;26.37;;;;;;;;;;4982577;28;20557;-79
2022/11/23 05:23:12;;;;;;;50.20;25.43;;;;;;;;;;4998937;28;20234;-79
2022/11/23 05:25:38;;;;;;;53.87;28.03;;;;;;;;;;4993881;28;20266;-80
2022/11/23 05:28:05;;;;;;;56.57;26.63;;;;;;;;;;4988986;28;20282;-80
2022/11/23 05:30:31;;;;;;;56.40;26.83;;;;;;;;;;4975919;28;20291;-78
2022/11/23 05:33:01;;;;;;;52.23;26.97;;;;;;;;;;4977281;28;20266;-80
2022/11/23 05:35:27;;;;;;;54.63;26.27;;;;;;;;;;4994199;28;20215;-80
2022/11/23 05:37:53;;;;;;;52.57;26.30;;;;;;;;;;4993400;28;20274;-79
2022/11/23 05:40:19;;;;;;;49.60;25.73;;;;;;;;;;4992850;28;20275;-80
2022/11/23 05:42:45;;;;;;;58.03;27.83;;;;;;;;;;4973625;28;20295;-80
2022/11/23 05:45:11;;;;;;;54.37;28.40;;;;;;;;;;4991645;28;20222;-81
2022/11/23 05:47:37;;;;;;;61.57;28.10;;;;;;;;;;4974507;28;20221;-80
2022/11/23 05:50:03;;;;;;;54.07;26.57;;;;;;;;;;4974287;28;20257;-79
2022/11/23 05:52:29;;;;;;;56.27;28.00;;;;;;;;;;4988702;28;20192;-78
2022/11/23 05:54:55;;;;;;;49.33;26.30;;;;;;;;;;4959555;28;20195;-81
2022/11/23 05:57:21;;;;;;;55.00;27.17;;;;;;;;;;4977304;28;20196;-80
2022/11/23 05:59:48;;;;;;;58.13;27.30;;;;;;;;;;4979394;28;20177;-79
2022/11/23 06:02:14;;;;;;;54.27;27.43;;;;;;;;;;4991847;28;20219;-80
2022/11/23 06:04:40;;;;;;;54.80;26.63;;;;;;;;;;4969060;28;20194;-80
2022/11/23 06:07:06;;;;;;;59.40;28.50;;;;;;;;;;4988928;28;20554;-78
2022/11/23 06:09:32;;;;;;;54.63;27.10;;;;;;;;;;4993055;28;20188;-80
2022/11/23 06:11:58;;;;;;;59.30;28.10;;;;;;;;;;4993577;28;20187;-81
2022/11/23 06:14:24;;;;;;;48.30;26.13;;;;;;;;;;4992009;28;20196;-79
2022/11/23 06:16:50;;;;;;;51.43;25.93;;;;;;;;;;4993210;28;20195;-78
2022/11/23 06:19:16;;;;;;;56.63;28.53;;;;;;;;;;4990347;28;20184;-80
2022/11/23 06:21:42;;;;;;;54.13;26.80;;;;;;;;;;4989548;28;20633;-79
2022/11/23 06:24:08;;;;;;;52.97;27.30;;;;;;;;;;4995349;28;20204;-80
2022/11/23 06:26:34;;;;;;;51.13;26.80;;;;;;;;;;4985179;28;20191;-81
2022/11/23 06:29:00;;;;;;;55.50;27.83;;;;;;;;;;4988893;28;20187;-80
2022/11/23 06:31:26;;;;;;;55.90;26.53;;;;;;;;;;5009849;28;20178;-79
2022/11/23 06:33:52;;;;;;;54.53;27.70;;;;;;;;;;5012182;28;20187;-79
2022/11/23 06:36:18;;;;;;;60.67;28.87;;;;;;;;;;5010109;28;20175;-79
2022/11/23 06:38:44;;;;;;;50.10;26.43;;;;;;;;;;5010194;28;20186;-80
2022/11/23 06:41:10;;;;;;;56.80;27.80;;;;;;;;;;5012492;28;20660;-78
2022/11/23 06:43:36;;;;;;;48.53;25.93;;;;;;;;;;5010114;28;20221;-82
2022/11/23 06:46:04;;;;;;;50.87;27.30;;;;;;;;;;5012803;28;20241;-77
2022/11/23 06:48:30;;;;;;;51.70;26.87;;;;;;;;;;4991856;28;20598;-78
2022/11/23 06:50:58;;;;;;;50.03;26.20;;;;;;;;;;4995062;28;20178;-79
2022/11/23 06:53:24;;;;;;;47.20;25.73;;;;;;;;;;5015515;28;20306;-77
2022/11/23 06:55:50;;;;;;;45.30;25.83;;;;;;;;;;5006058;28;20271;-77
2022/11/23 06:58:16;;;;;;;53.23;26.37;;;;;;;;;;4999758;28;20708;-77
2022/11/23 07:00:41;;;;;;;51.03;25.93;;;;;;;;;;4994469;28;20213;-77
2022/11/23 07:03:11;;;;;;;47.50;24.80;;;;;;;;;;5022096;28;20668;-77
2022/11/23 07:05:38;;;;;;;45.13;24.17;;;;;;;;;;5010342;28;20175;-78
2022/11/23 07:08:04;;;;;;;44.50;23.73;;;;;;;;;;5009201;28;20197;-80
2022/11/23 07:10:31;;;;;;;45.93;23.93;;;;;;;;;;4997676;28;20187;-78
2022/11/23 07:13:03;;;;;;;44.10;23.03;;;;;;;;;;5009203;28;20195;-77
2022/11/23 07:15:29;;;;;;;43.23;22.87;;;;;;;;;;4997560;28;20183;-79
2022/11/23 07:17:55;;;;;;;43.60;23.07;;;;;;;;;;4994282;28;20646;-78
2022/11/23 07:20:21;;;;;;;45.27;23.40;;;;;;;;;;5010746;28;20194;-79
2022/11/23 07:22:47;;;;;;;46.47;24.63;;;;;;;;;;4991877;28;20763;-78
2022/11/23 07:25:17;;;;;;;42.60;23.37;;;;;;;;;;4999514;28;20187;-80
2022/11/23 07:27:44;;;;;;;43.30;23.30;;;;;;;;;;5010201;28;20249;-79
2022/11/23 07:30:10;;;;;;;40.03;23.33;;;;;;;;;;4991678;28;20179;-79
2022/11/23 07:32:36;;;;;;;44.30;24.93;;;;;;;;;;4995993;28;20175;-78
2022/11/23 07:35:02;;;;;;;47.00;24.97;;;;;;;;;;4983464;28;20270;-79
2022/11/23 07:37:28;;;;;;;49.17;25.63;;;;;;;;;;5006292;28;20183;-79
2022/11/23 07:39:54;;;;;;;42.27;24.00;;;;;;;;;;4990924;28;20194;-78
2022/11/23 07:42:21;;;;;;;43.60;24.20;;;;;;;;;;5012986;28;20206;-79
2022/11/23 07:44:47;;;;;;;40.67;22.93;;;;;;;;;;5009316;28;20326;-78
2022/11/23 07:47:13;;;;;;;37.63;22.53;;;;;;;;;;5010732;28;20179;-77
2022/11/23 07:49:39;;;;;;;38.70;21.70;;;;;;;;;;4994657;28;20226;-78
2022/11/23 07:52:05;;;;;;;39.20;22.37;;;;;;;;;;5008417;28;20187;-78
2022/11/23 07:54:31;;;;;;;40.30;22.93;;;;;;;;;;4992411;28;20198;-78
2022/11/23 07:56:57;;;;;;;38.87;21.97;;;;;;;;;;4993577;28;20205;-78
2022/11/23 07:59:23;;;;;;;47.77;25.17;;;;;;;;;;5009462;28;20183;-78
2022/11/23 08:01:49;;;;;;;43.00;23.63;;;;;;;;;;5007959;28;20540;-77
2022/11/23 08:04:15;;;;;;;44.87;24.07;;;;;;;;;;5005585;28;20217;-77
2022/11/23 08:06:41;;;;;;;41.67;23.17;;;;;;;;;;5012740;28;20194;-78
2022/11/23 08:09:07;;;;;;;43.37;23.73;;;;;;;;;;4994798;28;20191;-78
2022/11/23 08:11:33;;;;;;;41.53;22.50;;;;;;;;;;4989963;28;20183;-78
2022/11/23 08:13:59;;;;;;;41.40;22.97;;;;;;;;;;5012610;28;20191;-78
2022/11/23 08:16:25;;;;;;;32.90;21.43;;;;;;;;;;4998349;28;20186;-78
2022/11/23 08:18:51;;;;;;;37.50;22.23;;;;;;;;;;5021600;28;20199;-77
2022/11/23 08:21:17;;;;;;;36.87;20.63;;;;;;;;;;5000591;28;20186;-78
2022/11/23 08:23:43;;;;;;;34.53;20.60;;;;;;;;;;5001300;28;20219;-77
2022/11/23 08:26:09;;;;;;;35.30;21.10;;;;;;;;;;4985505;28;20262;-78
2022/11/23 08:28:37;;;;;;;34.00;20.30;;;;;;;;;;5000600;28;20790;-78
2022/11/23 08:31:07;;;;;;;30.27;18.57;;;;;;;;;;5004699;28;20285;-78
2022/11/23 08:33:33;;;;;;;26.70;18.07;;;;;;;;;;5003994;28;20259;-78
2022/11/23 08:36:03;;;;;;;26.40;17.40;;;;;;;;;;4989587;28;20640;-79
2022/11/23 08:38:29;;;;;;;31.03;18.50;;;;;;;;;;5004415;28;20179;-79
2022/11/23 08:40:59;;;;;;;29.80;18.70;;;;;;;;;;4982568;28;20183;-78
2022/11/23 08:43:25;;;;;;;33.50;19.50;;;;;;;;;;5004502;28;20215;-80
2022/11/23 08:45:55;;;;;;;31.63;19.37;;;;;;;;;;5003902;28;20298;-79
2022/11/23 08:48:21;;;;;;;36.70;21.90;;;;;;;;;;5003910;28;20175;-79
2022/11/23 08:50:47;;;;;;;32.80;21.27;;;;;;;;;;4981505;28;20179;-77
2022/11/23 08:53:13;;;;;;;37.97;22.27;;;;;;;;;;5001953;28;20530;-79
2022/11/23 08:55:39;;;;;;;33.90;21.50;;;;;;;;;;4983620;28;20281;-79
2022/11/23 08:58:06;;;;;;;39.47;23.73;;;;;;;;;;4997309;28;20315;-79
2022/11/23 09:00:32;;;;;;;36.33;23.77;;;;;;;;;;5000962;28;20188;-80
2022/11/23 09:02:58;;;;;;;36.83;21.57;;;;;;;;;;4977678;28;20249;-79
2022/11/23 09:05:25;;;;;;;35.20;22.50;;;;;;;;;;4983582;28;20206;-79
2022/11/23 09:07:51;;;;;;;39.13;22.00;;;;;;;;;;4982982;28;20190;-80
2022/11/23 09:10:17;;;;;;;35.90;22.10;;;;;;;;;;4982088;28;20552;-78
2022/11/23 09:12:43;;;;;;;35.47;21.20;;;;;;;;;;4983528;28;20230;-79
2022/11/23 09:15:09;;;;;;;34.90;21.87;;;;;;;;;;5001401;28;20215;-79
2022/11/23 09:17:35;;;;;;;34.10;21.20;;;;;;;;;;4985133;28;20191;-80
2022/11/23 09:20:01;;;;;;;30.17;19.57;;;;;;;;;;4982992;28;20183;-80
2022/11/23 09:22:27;;;;;;;27.07;18.60;;;;;;;;;;4981391;28;20598;-80
2022/11/23 09:24:53;;;;;;;30.37;18.37;;;;;;;;;;4974573;28;20187;-79
2022/11/23 09:27:19;;;;;;;29.17;19.40;;;;;;;;;;4992867;28;20183;-80
2022/11/23 09:29:45;;;;;;;26.57;18.50;;;;;;;;;;4980504;28;20184;-79
2022/11/23 09:32:11;;;;;;;26.70;17.30;;;;;;;;;;4968229;28;20550;-80
2022/11/23 09:34:37;;;;;;;29.47;18.23;;;;;;;;;;4992504;28;20188;-79
2022/11/23 09:37:03;;;;;;;28.40;18.03;;;;;;;;;;4991088;28;20219;-79
2022/11/23 09:39:29;;;;;;;25.00;17.43;;;;;;;;;;4989253;28;20214;-80
2022/11/23 09:42:17;;;;;;;25.00;17.03;;;;;;;;;;4976902;28;20183;-78
2022/11/23 09:44:58;;;;;;;25.80;17.00;;;;;;;;;;4969696;28;20343;-80
2022/11/23 09:47:50;;;;;;;26.80;17.90;;;;;;;;;;4981853;28;20191;-79
2022/11/23 09:50:25;;;;;;;28.87;18.60;;;;;;;;;;4987645;28;20206;-79
2022/11/23 09:52:51;;;;;;;24.27;17.67;;;;;;;;;;4989041;28;20313;-78
2022/11/23 09:55:32;;;;;;;28.43;19.00;;;;;;;;;;4982319;28;20184;-79
2022/11/23 09:58:01;;;;;;;31.80;20.63;;;;;;;;;;4977354;28;20187;-78
2022/11/23 10:00:27;;;;;;;27.37;18.07;;;;;;;;;;4993415;28;20649;-79
2022/11/23 10:02:53;;;;;;;30.47;19.80;;;;;;;;;;4971452;28;20681;-78
2022/11/23 10:05:22;;;;;;;30.40;19.70;;;;;;;;;;4968165;28;20211;-80
2022/11/23 10:07:57;;;;;;;26.80;19.73;;;;;;;;;;4970628;28;20188;-80
2022/11/23 10:10:32;;;;;;;29.60;19.87;;;;;;;;;;4981174;28;20548;-79
2022/11/23 10:13:01;;;;;;;28.37;19.70;;;;;;;;;;4959108;28;20196;-79
2022/11/23 10:15:31;;;;;;;32.93;22.20;;;;;;;;;;4962931;28;20258;-80
2022/11/23 10:18:06;;;;;;;32.00;21.47;;;;;;;;;;4990496;28;20267;-78
2022/11/23 10:20:48;;;;;;;33.07;21.47;;;;;;;;;;4976391;28;20198;-79
2022/11/23 10:23:32;;;;;;;33.57;21.70;;;;;;;;;;4975169;28;20231;-79
2022/11/23 10:25:59;;;;;;;28.20;19.87;;;;;;;;;;4973135;28;20185;-79
2022/11/23 10:28:28;;;;;;;28.90;20.30;;;;;;;;;;4992509;28;20262;-79
2022/11/23 10:31:14;;;;;;;28.97;20.40;;;;;;;;;;4985708;28;20188;-78
2022/11/23 10:33:46;;;;;;;29.90;19.13;;;;;;;;;;4989901;28;20183;-80
2022/11/23 10:36:12;;;;;;;31.50;20.03;;;;;;;;;;4974311;28;20595;-79
2022/11/23 10:38:38;;;;;;;27.93;19.60;;;;;;;;;;4992236;28;20187;-79
2022/11/23 10:41:05;;;;;;;31.00;20.67;;;;;;;;;;4990491;28;20230;-79
2022/11/23 10:43:37;;;;;;;29.57;19.67;;;;;;;;;;4993137;28;20204;-80
2022/11/23 10:46:22;;;;;;;26.57;18.60;;;;;;;;;;4990627;28;20492;-79
2022/11/23 10:48:48;;;;;;;29.17;20.53;;;;;;;;;;4987542;28;20187;-78
2022/11/23 10:51:27;;;;;;;27.10;19.27;;;;;;;;;;4992808;28;20187;-79
2022/11/23 10:53:55;;;;;;;31.53;20.03;;;;;;;;;;4991188;28;20175;-77
2022/11/23 10:56:21;;;;;;;29.17;21.23;;;;;;;;;;4972088;28;20176;-78
2022/11/23 10:58:47;;;;;;;26.33;20.13;;;;;;;;;;4986993;28;20188;-78
2022/11/23 11:01:21;;;;;;;30.37;20.47;;;;;;;;;;4970720;28;20691;-79
2022/11/23 11:03:47;;;;;;;26.27;19.70;;;;;;;;;;4974252;28;20374;-78
2022/11/23 11:06:21;;;;;;;27.77;18.87;;;;;;;;;;4976153;28;20761;-78
2022/11/23 11:08:57;;;;;;;27.27;19.40;;;;;;;;;;4970081;28;20207;-78
2022/11/23 11:11:26;;;;;;;26.93;19.07;;;;;;;;;;4991259;28;20194;-77
2022/11/23 11:14:01;;;;;;;27.20;19.27;;;;;;;;;;4974180;28;20191;-77
2022/11/23 11:16:32;;;;;;;29.43;20.40;;;;;;;;;;4990854;28;20539;-77
2022/11/23 11:18:59;;;;;;;28.50;20.13;;;;;;;;;;4973423;28;20206;-78
2022/11/23 11:21:32;;;;;;;28.60;19.87;;;;;;;;;;4975215;28;20183;-77
2022/11/23 11:24:02;;;;;;;29.43;20.87;;;;;;;;;;5011707;28;20214;-81
2022/11/23 11:26:29;;;;;;;26.33;19.67;;;;;;;;;;5005600;28;20210;-76
2022/11/23 11:28:57;;;;;;;28.50;19.67;;;;;;;;;;5012087;28;20190;-77
2022/11/23 11:31:26;;;;;;;29.00;20.90;;;;;;;;;;5011892;28;20175;-78
2022/11/23 11:34:05;;;;;;;26.13;19.20;;;;;;;;;;5028398;28;20187;-79
2022/11/23 11:36:39;;;;;;;28.20;20.27;;;;;;;;;;4994853;28;20537;-77
2022/11/23 11:39:10;;;;;;;28.07;18.40;;;;;;;;;;4993980;28;20182;-78
2022/11/23 11:41:36;;;;;;;25.53;19.00;;;;;;;;;;4992134;28;20175;-79
2022/11/23 11:44:07;;;;;;;27.10;20.17;;;;;;;;;;5006412;28;20306;-79
2022/11/23 11:46:37;;;;;;;27.70;20.10;;;;;;;;;;4983352;28;20323;-79
2022/11/23 11:49:07;;;;;;;28.03;19.50;;;;;;;;;;5006265;28;20182;-79
2022/11/23 11:51:41;;;;;;;36.33;23.63;;;;;;;;;;5017824;28;20198;-79
2022/11/23 11:54:10;;;;;;;31.83;21.23;;;;;;;;;;5017539;28;20234;-78
2022/11/23 11:56:43;;;;;;;27.83;19.80;;;;;;;;;;5033410;28;20171;-78
2022/11/23 11:59:09;;;;;;;27.77;19.73;;;;;;;;;;5032961;28;20287;-79
2022/11/23 12:01:36;;;;;;;31.33;20.63;;;;;;;;;;5014886;28;20175;-78
2022/11/23 12:04:07;;;;;;;30.00;20.70;;;;;;;;;;5002214;28;20229;-79
2022/11/23 12:06:43;;;;;;;29.43;21.83;;;;;;;;;;5012492;28;20187;-79
2022/11/23 12:09:12;;;;;;;32.23;22.30;;;;;;;;;;5031715;28;20231;-78
2022/11/23 12:11:38;;;;;;;32.80;23.00;;;;;;;;;;5021533;28;20196;-78
2022/11/23 12:14:05;;;;;;;32.50;23.03;;;;;;;;;;5025010;28;20229;-79
2022/11/23 12:16:42;;;;;;;37.83;24.60;;;;;;;;;;5028256;28;20188;-79
2022/11/23 12:19:14;;;;;;;33.53;23.50;;;;;;;;;;5001449;28;20190;-79
2022/11/23 12:21:58;;;;;;;31.53;22.50;;;;;;;;;;4994627;28;20686;-78
2022/11/23 12:24:24;;;;;;;31.90;22.70;;;;;;;;;;4994037;28;20226;-79
2022/11/23 12:27:11;;;;;;;32.57;22.27;;;;;;;;;;5009278;28;20187;-78
2022/11/23 12:29:44;;;;;;;31.00;22.07;;;;;;;;;;4974421;28;20196;-80
2022/11/23 12:32:16;;;;;;;34.03;23.00;;;;;;;;;;4978700;28;20226;-79
2022/11/23 12:34:42;;;;;;;32.57;22.77;;;;;;;;;;4999545;28;20237;-78
2022/11/23 12:37:14;;;;;;;35.10;22.97;;;;;;;;;;5009235;28;20675;-80
2022/11/23 12:39:46;;;;;;;33.23;22.33;;;;;;;;;;4993450;28;20176;-79
2022/11/23 12:42:17;;;;;;;33.80;22.90;;;;;;;;;;5005808;28;20190;-78
2022/11/23 12:44:46;;;;;;;35.80;23.63;;;;;;;;;;4991888;28;20186;-80
2022/11/23 12:47:31;;;;;;;33.17;23.17;;;;;;;;;;4987116;28;20242;-79
2022/11/23 12:50:18;;;;;;;35.93;24.33;;;;;;;;;;5002645;28;20261;-78
2022/11/23 12:52:56;;;;;;;39.23;26.67;;;;;;;;;;4973626;28;20683;-78
2022/11/23 12:55:28;;;;;;;40.27;26.17;;;;;;;;;;5013114;28;20183;-79
2022/11/23 12:58:14;;;;;;;38.33;24.67;;;;;;;;;;4995816;28;20294;-78
2022/11/23 13:00:53;;;;;;;40.33;26.27;;;;;;;;;;5010570;28;20179;-79
2022/11/23 13:03:39;;;;;;;36.77;25.97;;;;;;;;;;4999921;28;20216;-80
2022/11/23 13:06:11;;;;;;;41.60;27.57;;;;;;;;;;4914154;29;20186;-78
2022/11/23 13:08:57;;;;;;;40.23;26.73;;;;;;;;;;4906772;29;20201;-79
2022/11/23 13:11:29;;;;;;;44.50;30.30;;;;;;;;;;4908244;29;20610;-80
2022/11/23 13:14:04;;;;;;;43.10;27.27;;;;;;;;;;4913480;29;20534;-79
2022/11/23 13:16:36;;;;;;;43.90;28.43;;;;;;;;;;4917797;29;20228;-80
2022/11/23 13:19:14;;;;;;;42.07;27.03;;;;;;;;;;4912536;29;20221;-80
2022/11/23 13:21:42;;;;;;;41.57;27.20;;;;;;;;;;4930109;29;20208;-79
2022/11/23 13:24:27;;;;;;;41.53;28.33;;;;;;;;;;4914176;29;20221;-80
2022/11/23 13:27:12;;;;;;;44.30;29.10;;;;;;;;;;4917472;29;20193;-79
2022/11/23 13:29:50;;;;;;;43.00;28.87;;;;;;;;;;4922382;29;20234;-80
2022/11/23 13:32:34;;;;;;;45.47;30.93;;;;;;;;;;4917304;29;20334;-80
2022/11/23 13:35:00;;;;;;;51.07;33.00;;;;;;;;;;4927282;29;20213;-79
2022/11/23 13:37:26;;;;;;;49.80;32.27;;;;;;;;;;4931228;29;20190;-79
2022/11/23 13:39:56;;;;;;;48.47;33.00;;;;;;;;;;4915367;29;20513;-79
2022/11/23 13:42:23;;;;;;;45.63;29.33;;;;;;;;;;4944010;28;20207;-79
2022/11/23 13:45:09;;;;;;;47.83;30.03;;;;;;;;;;4991757;28;20198;-79
2022/11/23 13:47:35;;;;;;;50.37;30.80;;;;;;;;;;4991867;28;20187;-79
2022/11/23 13:50:09;;;;;;;50.40;31.27;;;;;;;;;;5009380;28;20229;-79
2022/11/23 13:52:35;;;;;;;48.70;32.27;;;;;;;;;;5004890;28;20187;-78
2022/11/23 13:55:04;;;;;;;48.23;31.53;;;;;;;;;;5013247;28;20186;-78
2022/11/23 13:57:30;;;;;;;51.13;32.50;;;;;;;;;;5012186;28;20191;-79
2022/11/23 14:00:15;;;;;;;52.43;34.53;;;;;;;;;;5011502;28;20187;-80
2022/11/23 14:02:41;;;;;;;43.60;29.03;;;;;;;;;;5001343;28;20306;-79
2022/11/23 14:05:26;;;;;;;46.40;30.33;;;;;;;;;;4998927;28;20275;-78
2022/11/23 14:07:52;;;;;;;48.37;31.30;;;;;;;;;;5010466;28;20186;-79
2022/11/23 14:10:22;;;;;;;51.73;32.97;;;;;;;;;;5012882;28;20175;-78
2022/11/23 14:13:04;;;;;;;59.30;33.13;;;;;;;;;;5010955;28;20215;-79
2022/11/23 14:15:32;;;;;;;49.77;33.30;;;;;;;;;;4998426;28;20186;-79
2022/11/23 14:18:04;;;;;;;52.77;35.37;;;;;;;;;;5005135;28;20718;-78
2022/11/23 14:20:49;;;;;;;52.70;33.57;;;;;;;;;;5010952;28;20264;-79
2022/11/23 14:23:38;;;;;;;53.50;33.90;;;;;;;;;;4984635;28;20223;-79
2022/11/23 14:26:23;;;;;;;51.90;33.00;;;;;;;;;;4981722;28;20204;-79
2022/11/23 14:28:55;;;;;;;52.63;32.83;;;;;;;;;;4987914;28;20191;-79